Beatty, Nevada Weather observations

Data are for observation ending at time listed.
 Day   Time    Ave.   Ave.  Ave.  Vector   Max.   Stn.    Total    Solar   Ave.  
  of    of     Air    Rel.  Wind   Wind    Wind   Baro.  Precip.   Rad.    Soil  
Year   Day     Temp.  Hum.  Speed  Dir.    Gust   Pres.                    Temp. 
2016   (PST)    F      %     mph   deg.    mph     mb.     in.     W/m2     F   
------------------------------------------------------------------------------
  36   16:30   71.5   999    2.7     0      7.7   948.3    0.00      50    127.7
  36   16:40   69.2   999    3.8     0      8.2   939.7    0.00      31    118.0
  36   16:50   67.9   999    3.6     0      7.1   933.7    0.00       3    110.6
  36   17:00   66.0   999    3.0     0      7.7   934.9    0.00       0    105.8
  36   17:10   64.4   999    2.6     0      5.4   933.5    0.00       0    100.9
  36   17:20   62.4   999    2.6     0      5.6   932.2    0.00       0    96.2
  36   17:30   60.4   999    2.9     0      6.8   935.6    0.00       0    92.2
  36   17:40   58.0   999    2.9     0      6.4   924.6    0.00       0    88.1
  36   17:50   56.6   270    2.7     0      8.1   929.1    0.00       0    85.6
  36   18:00   55.8   268    2.5     0      7.7   928.7    0.00       0    83.9
  36   18:10   55.5   267    6.6     0     13.7   924.1    0.00       0    82.5
  36   18:20   55.3   266    7.8     0     15.1   924.3    0.00       0    81.6
  36   18:30   54.5   266    4.1     0     12.6   927.6    0.00       0    80.9
  36   18:40   53.4   269    3.2     0      7.2   929.9    0.00       0    80.2
  36   18:50   53.3   266    2.9     0      8.3   930.0    0.00       0    79.4
  36   19:00   52.6   267    3.0     0      8.8   928.4    0.00       0    78.8
  36   19:10   52.1   267    3.1     0      7.8   929.6    0.00       0    78.2
  36   19:20   51.7   268    3.2     0      7.3   927.8    0.00       0    77.6
  36   19:30   51.4   267    3.5     0      9.9   926.1    0.00       0    77.1
  36   19:40   51.4   266    3.3     0      7.4   925.0    0.00       0    76.6
  36   19:50   51.4   266    2.1     0      7.0   929.9    0.00       0    76.1
  36   20:00   51.4   265    2.8     0      7.0   926.5    0.00       0    75.8
  36   20:10   51.6   264    4.2     0      9.6   925.0    0.00       0    75.4
  36   20:20   50.9   266    3.0     0      7.2   927.9    0.00       0    75.3
  36   20:30   50.4   266    3.6     0      9.3   925.1    0.00       0    75.0
  36   20:40   50.1   267    3.6     0      9.5   925.7    0.00       0    74.8
  36   20:50   49.4   270    3.1     0      8.8   929.1    0.00       0    74.6
  36   21:00   48.8   272    2.5     0      6.6   928.1    0.00       0    74.3
  36   21:10   48.0   273    2.2     0      6.3   930.6    0.00       0    73.9
  36   21:20   47.1   999    3.9     0      7.1   935.0    0.00       0    73.4
  36   21:30   45.0   999    4.4     0      7.7   945.3    0.00       0    72.9
  36   21:40   45.3   999    3.8     0      7.6   941.9    0.00       0    72.2
  36   21:50   45.5   999    6.6     0      9.7   942.5    0.00       0    71.6
  36   22:00   44.8   999    4.4     0     10.0   934.2    0.00       0    71.3
  36   22:10   44.1   999    2.7     0      6.3   930.3    0.00       0    70.9
  36   22:20   43.7   999    6.3     0      9.7   940.5    0.00       0    70.4
  36   22:30   43.8   999    4.9     0      9.0   935.5    0.00       0    70.0
  36   22:40   44.0   999    6.2     0      9.7   941.0    0.00       0    69.7
  36   22:50   44.3   275    6.3     0      9.7   940.1    0.00       0    69.5
  36   23:00   44.5   274    4.9     0      8.0   934.8    0.00       0    69.5
  36   23:10   44.3   274    6.4     0     11.7   936.8    0.00       0    69.5
  36   23:20   44.5   273    5.0     0      9.8   933.1    0.00       0    69.4
  36   23:30   46.5   268    3.8     0      8.8   928.0    0.00       0    69.5
  36   23:40   46.6   268    3.0     0      9.3   928.6    0.00       0    69.7
  36   23:50   46.2   268    4.7     0      9.4   927.7    0.00       0    70.0
  37    0:00   46.3   268    4.2     0     11.0   929.3    0.00       0    70.2
  37    0:10   46.2   268    4.4     0      9.6   928.3    0.00       0    69.9
  37    0:20   46.1   268    4.4     0      8.8   927.6    0.00       0    70.0
  37    0:30   46.3   267    5.4     0     10.4   928.1    0.00       0    70.1
  37    0:40   45.9   267    3.5     0      7.5   927.9    0.00       0    70.1
  37    0:50   46.0   266    3.7     0      7.7   925.1    0.00       0    70.1
  37    1:00   46.0   266    3.2     0      9.5   926.1    0.00       0    70.1
  37    1:10   45.3   267    2.9     0      7.7   927.1    0.00       0    70.5
  37    1:20   45.5   266    3.6     0      9.9   924.7    0.00       0    70.3
  37    1:30   45.2   266    4.0     0      9.5   924.7    0.00       0    70.1
  37    1:40   44.9   267    4.0     0      9.9   925.2    0.00       0    70.0
  37    1:50   44.8   267    3.4     0      9.3   927.3    0.00       0    69.8
  37    2:00   44.5   267    3.8     0     10.0   927.8    0.00       0    69.6
  37    2:10   44.3   267    3.8     0     10.5   928.4    0.00       0    69.5
  37    2:20   43.4   270    5.1     0      9.4   930.1    0.00       0    69.3
  37    2:30   43.5   269    4.3     0     10.4   927.3    0.00       0    69.1
  37    2:40   43.6   268    3.5     0      9.8   928.0    0.00       0    68.9
  37    2:50   43.9   267    3.4     0      8.7   928.6    0.00       0    68.8
  37    3:00   44.1   266    4.2     0     10.4   927.1    0.00       0    68.7
  37    3:10   44.6   264    4.0     0      9.3   925.2    0.00       0    68.7
  37    3:20   44.4   263    3.6     0      8.3   927.9    0.00       0    68.7
  37    3:30   44.5   263    3.7     0      9.6   924.8    0.00       0    68.8
  37    3:40   44.2   263    4.2     0      9.9   925.5    0.00       0    68.8
  37    3:50   44.2   263    4.4     0     11.5   924.1    0.00       0    68.7
  37    4:00   44.0   263    4.6     0     12.1   924.4    0.00       0    68.7
  37    4:10   43.5   264    2.9     0      7.5   927.7    0.00       0    68.7
  37    4:20   43.4   264    4.0     0     11.2   927.6    0.00       0    68.6
  37    4:30   43.3   264    5.3     0     11.5   923.6    0.00       0    68.5
  37    4:40   43.3   264    3.5     0      9.8   926.8    0.00       0    68.5
  37    4:50   43.1   264    3.4     0      8.9   927.5    0.00       0    68.4
  37    5:00   43.4   262    5.1     0      9.9   929.7    0.00       0    68.3
  37    5:10   41.7   267    6.0     0     10.8   936.0    0.00       0    68.3
  37    5:20   40.9   269    5.0     0      8.4   931.2    0.00       0    68.1
  37    5:30   40.1   271    4.5     0     11.1   928.2    0.00       0    67.7
  37    5:40   39.4   272    4.6     0      9.7   937.2    0.00       0    67.2
  37    5:50   41.6   265    4.0     0      8.9   927.4    0.00       0    66.8
  37    6:00   43.2   260    4.1     0     11.0   926.7    0.00       0    66.7
  37    6:10   42.8   261    3.3     0      8.8   925.5    0.00       0    66.8
  37    6:20   42.4   262    2.7     0     10.0   926.2    0.00       0    67.0
  37    6:30   42.5   261    4.5     0      9.3   924.2    0.00       0    67.0
  37    6:40   42.4   260    3.9     0      9.9   924.8    0.00       0    67.1
  37    6:50   42.2   261    3.2     0      9.1   927.2    0.00       0    67.1
  37    7:00   42.2   262    3.6     0      8.3   926.9    0.00       0    67.2
  37    7:10   42.4   263    3.4     0      9.6   927.4    0.00       0    67.2
  37    7:20   42.4   266    3.9     0     16.1   926.8    0.00       0    67.4
  37    7:30   42.4   272    3.6     0      8.7   926.1    0.00       0    67.6
  37    7:40   43.2   999    5.8     0     12.6   924.8    0.00       0    68.6
  37    7:50   47.2   999    5.1     0     12.6   942.6    0.00      41    89.8
  37    8:00   51.1   999    5.1     0     13.7   959.9    0.00     178    112.8
  37    8:10   51.3   999    4.4     0     11.3   951.3    0.00     144    108.6
  37    8:20   49.9   999    4.8     0      9.8   941.9    0.00      47    95.8
  37    8:30   52.3   999    3.2     0      9.1   956.0    0.00     138    110.9
  37    8:40   53.7   999    5.3     0     12.3   958.8    0.00     147    113.3
  37    8:50   53.7   999    5.1     0     12.9   957.4    0.00     137    113.3
  37    9:00   54.5   999    4.6     0     10.4   955.8    0.00     128    113.2
  37    9:10   55.2   999    4.7     0     12.4   955.3    0.00     120    113.6
  37    9:20   55.5   999    6.5     0     14.2   960.2    0.00     114    114.2
  37    9:30   56.2   999    9.4     0     15.1   962.1    0.00     110    115.6
  37    9:40   57.7   999    7.4     0     14.8   961.0    0.00     108    116.6
  37    9:50   59.3   999    5.6     0     12.5   957.0    0.00     105    117.7
  37   10:00   60.7   999    5.5     0     12.0   955.8    0.00     100    118.9
  37   10:10   61.1   999    5.9     0     12.6   957.8    0.00      94    120.1
  37   10:20   61.2   999    8.5     0     15.0   961.1    0.00      90    121.0
  37   10:30   62.2   999    8.3     0     14.8   961.5    0.00      87    122.1
  37   10:40   63.7   999    7.9     0     17.1   960.0    0.00      82    122.4
  37   10:50   64.7   999    6.1     0     12.6   957.6    0.00      77    123.0
  37   11:00   65.4   999    5.3     0     11.8   955.0    0.00      73    123.3
  37   11:10   66.5   999    4.2     0     10.0   954.5    0.00      67    123.6
  37   11:20   66.6   999    4.7     0     10.3   954.4    0.00      62    123.9
  37   11:30   66.8   999    5.4     0     11.3   955.5    0.00      57    124.3
  37   11:40   67.6   999    4.1     0      8.5   952.6    0.00      55    124.7
  37   11:50   67.7   999    6.1     0     11.7   955.2    0.00      50    125.0
  37   12:00   68.6   999    5.7     0     10.8   954.4    0.00      49    125.6
  37   12:10   69.3   999    6.7     0     12.6   953.4    0.00      45    125.9
  37   12:20   69.8   999    6.0     0     13.9   951.1    0.00      44    126.5
  37   12:30   70.1   999    4.7     0     10.9   954.4    0.00      44    127.1
  37   12:40   71.2   999    4.3     0      8.7   947.3    0.00      41    127.6
  37   12:50   72.6   999    3.4     0     10.3   945.1    0.00      39    127.9
  37   13:00   73.0   999    4.3     0     10.7   951.6    0.00      37    128.5
  37   13:10   72.3   999    4.4     0     11.5   946.2    0.00      34    127.9
  37   13:20   73.0   999    3.1     0      8.3   944.9    0.00      29    126.3
  37   13:30   73.5   999    4.0     0      9.4   946.0    0.00      32    127.8
  37   13:40   74.6   999    4.1     0      8.6   947.6    0.00      39    130.9
  37   13:50   74.4   999    4.5     0      9.3   952.2    0.00      38    130.5
  37   14:00   74.4   999    4.3     0     11.8   954.5    0.00      36    130.7
  37   14:10   75.0   999    3.8     0     10.7   951.3    0.00      35    131.0
  37   14:20   75.4   999    3.8     0      9.9   950.3    0.00      35    131.4
  37   14:30   75.2   999    4.2     0      9.8   955.0    0.00      35    132.0
  37   14:40   76.0   999    1.4     0      7.0   963.0    0.00      33    132.5
  37   14:50   76.7   999    1.9     0      5.6   955.8    0.00      29    132.6
  37   15:00   75.8   999    4.1     0      7.7   965.0    0.00      29    132.1
  37   15:10   75.0   999    3.4     0      6.7   976.6    0.00      23    129.2
  37   15:20   75.2   999    4.4     0      8.6   960.9    0.00      18    127.2
  37   15:30   75.8   999    3.2     0      6.6   958.8    0.00      17    126.1
  37   15:40   75.8   999    3.4     0      6.5   959.4    0.00      15    125.2
  37   15:50   75.9   999    3.6     0      7.4   958.9    0.00      12    124.2
  37   16:00   76.1   999    3.7     0      6.6   962.4    0.00      14    123.8
  37   16:10   77.1   999    3.8     0      6.9   983.5    0.00      31    130.9
  37   16:20   76.4   999    3.9     0      9.1   986.9    0.00      38    132.5

Return to Beatty, Nevada graphs page.


Western Regional Climate Center,wrcc@dri.edu